sensor_id;sensor_type;location;lat;lon;timestamp;P1;durP1;ratioP1;P2;durP2;ratioP2
29044;SDS011;16133;49.486;12.176;2022-07-29T00:00:08;3.50;;;1.90;;
29044;SDS011;16133;49.486;12.176;2022-07-29T00:02:34;2.35;;;1.73;;
29044;SDS011;16133;49.486;12.176;2022-07-29T00:05:00;3.38;;;1.70;;
29044;SDS011;16133;49.486;12.176;2022-07-29T00:07:26;2.00;;;1.58;;
29044;SDS011;16133;49.486;12.176;2022-07-29T00:09:51;1.88;;;1.70;;
29044;SDS011;16133;49.486;12.176;2022-07-29T00:12:17;1.60;;;1.50;;
29044;SDS011;16133;49.486;12.176;2022-07-29T00:14:42;2.05;;;1.67;;
29044;SDS011;16133;49.486;12.176;2022-07-29T00:17:08;2.28;;;1.73;;
29044;SDS011;16133;49.486;12.176;2022-07-29T00:19:33;3.45;;;2.03;;
29044;SDS011;16133;49.486;12.176;2022-07-29T00:21:59;1.75;;;1.60;;
29044;SDS011;16133;49.486;12.176;2022-07-29T00:24:25;2.97;;;1.73;;
29044;SDS011;16133;49.486;12.176;2022-07-29T00:26:50;3.40;;;1.80;;
29044;SDS011;16133;49.486;12.176;2022-07-29T00:29:16;2.63;;;1.50;;
29044;SDS011;16133;49.486;12.176;2022-07-29T00:31:41;2.47;;;1.65;;
29044;SDS011;16133;49.486;12.176;2022-07-29T00:34:06;2.70;;;1.75;;
29044;SDS011;16133;49.486;12.176;2022-07-29T00:36:52;4.53;;;1.70;;
29044;SDS011;16133;49.486;12.176;2022-07-29T00:39:17;2.88;;;1.77;;
29044;SDS011;16133;49.486;12.176;2022-07-29T00:41:43;3.72;;;2.08;;
29044;SDS011;16133;49.486;12.176;2022-07-29T00:44:08;4.35;;;2.28;;
29044;SDS011;16133;49.486;12.176;2022-07-29T00:46:33;4.28;;;1.40;;
29044;SDS011;16133;49.486;12.176;2022-07-29T00:48:59;3.35;;;2.13;;
29044;SDS011;16133;49.486;12.176;2022-07-29T00:51:25;3.88;;;2.38;;
29044;SDS011;16133;49.486;12.176;2022-07-29T00:53:51;2.15;;;1.77;;
29044;SDS011;16133;49.486;12.176;2022-07-29T00:56:17;1.65;;;1.50;;
29044;SDS011;16133;49.486;12.176;2022-07-29T00:58:43;4.00;;;1.85;;
29044;SDS011;16133;49.486;12.176;2022-07-29T01:01:11;6.78;;;2.03;;
29044;SDS011;16133;49.486;12.176;2022-07-29T01:03:37;2.58;;;1.40;;
29044;SDS011;16133;49.486;12.176;2022-07-29T01:06:02;5.20;;;2.28;;
29044;SDS011;16133;49.486;12.176;2022-07-29T01:08:29;3.13;;;2.13;;
29044;SDS011;16133;49.486;12.176;2022-07-29T01:10:56;2.60;;;2.10;;
29044;SDS011;16133;49.486;12.176;2022-07-29T01:13:22;2.65;;;1.88;;
29044;SDS011;16133;49.486;12.176;2022-07-29T01:15:49;4.95;;;1.95;;
29044;SDS011;16133;49.486;12.176;2022-07-29T01:18:22;6.70;;;2.15;;
29044;SDS011;16133;49.486;12.176;2022-07-29T01:26:57;2.63;;;1.52;;
29044;SDS011;16133;49.486;12.176;2022-07-29T01:29:39;4.35;;;2.00;;
29044;SDS011;16133;49.486;12.176;2022-07-29T01:32:10;2.78;;;1.73;;
29044;SDS011;16133;49.486;12.176;2022-07-29T01:34:41;2.42;;;1.80;;
29044;SDS011;16133;49.486;12.176;2022-07-29T01:37:21;2.70;;;1.98;;
29044;SDS011;16133;49.486;12.176;2022-07-29T01:39:51;4.63;;;1.90;;
29044;SDS011;16133;49.486;12.176;2022-07-29T01:42:23;3.05;;;1.67;;
29044;SDS011;16133;49.486;12.176;2022-07-29T01:47:33;2.15;;;1.73;;
29044;SDS011;16133;49.486;12.176;2022-07-29T01:50:04;4.22;;;1.67;;
29044;SDS011;16133;49.486;12.176;2022-07-29T01:52:35;3.72;;;1.42;;
29044;SDS011;16133;49.486;12.176;2022-07-29T01:55:06;2.95;;;1.55;;
29044;SDS011;16133;49.486;12.176;2022-07-29T01:57:36;5.40;;;1.80;;
29044;SDS011;16133;49.486;12.176;2022-07-29T02:00:05;4.90;;;2.53;;
29044;SDS011;16133;49.486;12.176;2022-07-29T02:02:31;3.25;;;2.47;;
29044;SDS011;16133;49.486;12.176;2022-07-29T02:04:59;5.20;;;2.47;;
29044;SDS011;16133;49.486;12.176;2022-07-29T02:07:27;2.30;;;2.10;;
29044;SDS011;16133;49.486;12.176;2022-07-29T02:09:57;3.90;;;2.25;;
29044;SDS011;16133;49.486;12.176;2022-07-29T02:12:25;4.40;;;2.80;;
29044;SDS011;16133;49.486;12.176;2022-07-29T02:14:52;4.55;;;2.45;;
29044;SDS011;16133;49.486;12.176;2022-07-29T02:17:23;3.63;;;2.42;;
29044;SDS011;16133;49.486;12.176;2022-07-29T02:19:56;5.20;;;3.13;;
29044;SDS011;16133;49.486;12.176;2022-07-29T02:22:24;4.30;;;2.92;;
29044;SDS011;16133;49.486;12.176;2022-07-29T02:24:53;2.85;;;2.50;;
29044;SDS011;16133;49.486;12.176;2022-07-29T02:27:20;8.00;;;3.45;;
29044;SDS011;16133;49.486;12.176;2022-07-29T02:29:47;4.38;;;3.10;;
29044;SDS011;16133;49.486;12.176;2022-07-29T02:32:15;4.38;;;3.40;;
29044;SDS011;16133;49.486;12.176;2022-07-29T02:34:42;4.80;;;3.17;;
29044;SDS011;16133;49.486;12.176;2022-07-29T02:37:10;4.43;;;3.60;;
29044;SDS011;16133;49.486;12.176;2022-07-29T02:39:37;9.38;;;3.55;;
29044;SDS011;16133;49.486;12.176;2022-07-29T02:42:07;4.70;;;3.53;;
29044;SDS011;16133;49.486;12.176;2022-07-29T02:44:34;18.35;;;3.85;;
29044;SDS011;16133;49.486;12.176;2022-07-29T02:47:07;6.68;;;3.50;;
29044;SDS011;16133;49.486;12.176;2022-07-29T02:52:03;4.45;;;3.75;;
29044;SDS011;16133;49.486;12.176;2022-07-29T02:57:11;5.18;;;3.30;;
29044;SDS011;16133;49.486;12.176;2022-07-29T02:59:56;4.65;;;3.85;;
29044;SDS011;16133;49.486;12.176;2022-07-29T03:02:23;4.32;;;3.78;;
29044;SDS011;16133;49.486;12.176;2022-07-29T03:04:52;5.20;;;4.03;;
29044;SDS011;16133;49.486;12.176;2022-07-29T03:07:20;6.85;;;3.47;;
29044;SDS011;16133;49.486;12.176;2022-07-29T03:09:46;4.05;;;3.65;;
29044;SDS011;16133;49.486;12.176;2022-07-29T03:12:12;6.68;;;4.55;;
29044;SDS011;16133;49.486;12.176;2022-07-29T03:14:39;14.52;;;4.15;;
29044;SDS011;16133;49.486;12.176;2022-07-29T03:17:06;6.85;;;4.25;;
29044;SDS011;16133;49.486;12.176;2022-07-29T03:19:32;6.22;;;4.03;;
29044;SDS011;16133;49.486;12.176;2022-07-29T03:21:59;7.50;;;4.47;;
29044;SDS011;16133;49.486;12.176;2022-07-29T03:24:34;14.32;;;5.18;;
29044;SDS011;16133;49.486;12.176;2022-07-29T03:27:01;9.25;;;4.18;;
29044;SDS011;16133;49.486;12.176;2022-07-29T03:29:27;10.82;;;4.20;;
29044;SDS011;16133;49.486;12.176;2022-07-29T03:31:53;6.60;;;3.83;;
29044;SDS011;16133;49.486;12.176;2022-07-29T03:34:19;8.70;;;4.10;;
29044;SDS011;16133;49.486;12.176;2022-07-29T03:36:46;7.20;;;4.03;;
29044;SDS011;16133;49.486;12.176;2022-07-29T03:39:12;5.18;;;3.88;;
29044;SDS011;16133;49.486;12.176;2022-07-29T03:41:47;6.25;;;3.95;;
29044;SDS011;16133;49.486;12.176;2022-07-29T03:44:15;5.43;;;3.97;;
29044;SDS011;16133;49.486;12.176;2022-07-29T03:46:43;6.30;;;3.50;;
29044;SDS011;16133;49.486;12.176;2022-07-29T03:49:09;9.20;;;3.83;;
29044;SDS011;16133;49.486;12.176;2022-07-29T03:51:37;5.18;;;3.30;;
29044;SDS011;16133;49.486;12.176;2022-07-29T03:54:03;7.22;;;3.45;;
29044;SDS011;16133;49.486;12.176;2022-07-29T03:56:29;7.15;;;3.38;;
29044;SDS011;16133;49.486;12.176;2022-07-29T03:58:59;6.20;;;4.07;;
29044;SDS011;16133;49.486;12.176;2022-07-29T04:01:27;6.93;;;3.45;;
29044;SDS011;16133;49.486;12.176;2022-07-29T04:03:52;9.23;;;3.53;;
29044;SDS011;16133;49.486;12.176;2022-07-29T04:06:18;5.55;;;3.30;;
29044;SDS011;16133;49.486;12.176;2022-07-29T04:08:43;7.03;;;4.25;;
29044;SDS011;16133;49.486;12.176;2022-07-29T04:11:09;5.63;;;2.65;;
29044;SDS011;16133;49.486;12.176;2022-07-29T04:13:34;4.30;;;3.40;;
29044;SDS011;16133;49.486;12.176;2022-07-29T04:15:59;5.65;;;3.40;;
29044;SDS011;16133;49.486;12.176;2022-07-29T04:18:25;5.68;;;2.83;;
29044;SDS011;16133;49.486;12.176;2022-07-29T04:20:50;4.50;;;3.08;;
29044;SDS011;16133;49.486;12.176;2022-07-29T04:23:16;4.78;;;2.95;;
29044;SDS011;16133;49.486;12.176;2022-07-29T04:25:41;4.35;;;3.20;;
29044;SDS011;16133;49.486;12.176;2022-07-29T04:28:08;6.57;;;3.60;;
29044;SDS011;16133;49.486;12.176;2022-07-29T04:30:34;4.18;;;3.47;;
29044;SDS011;16133;49.486;12.176;2022-07-29T04:33:01;4.18;;;2.95;;
29044;SDS011;16133;49.486;12.176;2022-07-29T04:35:29;5.78;;;3.42;;
29044;SDS011;16133;49.486;12.176;2022-07-29T04:37:55;3.00;;;2.70;;
29044;SDS011;16133;49.486;12.176;2022-07-29T04:40:21;3.97;;;3.28;;
29044;SDS011;16133;49.486;12.176;2022-07-29T04:42:46;5.05;;;3.60;;
29044;SDS011;16133;49.486;12.176;2022-07-29T04:45:12;5.03;;;3.35;;
29044;SDS011;16133;49.486;12.176;2022-07-29T04:47:37;3.45;;;3.03;;
29044;SDS011;16133;49.486;12.176;2022-07-29T04:50:03;5.82;;;3.53;;
29044;SDS011;16133;49.486;12.176;2022-07-29T04:52:30;6.97;;;3.85;;
29044;SDS011;16133;49.486;12.176;2022-07-29T04:54:56;3.60;;;2.85;;
29044;SDS011;16133;49.486;12.176;2022-07-29T04:57:21;3.78;;;3.00;;
29044;SDS011;16133;49.486;12.176;2022-07-29T04:59:47;4.18;;;3.22;;
29044;SDS011;16133;49.486;12.176;2022-07-29T05:02:12;2.95;;;2.53;;
29044;SDS011;16133;49.486;12.176;2022-07-29T05:04:37;3.55;;;2.78;;
29044;SDS011;16133;49.486;12.176;2022-07-29T05:07:03;4.10;;;2.90;;
29044;SDS011;16133;49.486;12.176;2022-07-29T05:09:28;3.30;;;2.70;;
29044;SDS011;16133;49.486;12.176;2022-07-29T05:11:55;4.00;;;2.13;;
29044;SDS011;16133;49.486;12.176;2022-07-29T05:14:20;5.32;;;2.20;;
29044;SDS011;16133;49.486;12.176;2022-07-29T05:16:45;3.53;;;2.67;;
29044;SDS011;16133;49.486;12.176;2022-07-29T05:19:11;3.83;;;2.60;;
29044;SDS011;16133;49.486;12.176;2022-07-29T05:21:36;3.03;;;2.45;;
29044;SDS011;16133;49.486;12.176;2022-07-29T05:24:02;2.50;;;2.25;;
29044;SDS011;16133;49.486;12.176;2022-07-29T05:26:27;2.55;;;2.33;;
29044;SDS011;16133;49.486;12.176;2022-07-29T05:28:53;2.30;;;2.10;;
29044;SDS011;16133;49.486;12.176;2022-07-29T05:31:19;2.92;;;2.20;;
29044;SDS011;16133;49.486;12.176;2022-07-29T05:33:44;2.25;;;1.85;;
29044;SDS011;16133;49.486;12.176;2022-07-29T05:36:10;3.58;;;2.50;;
29044;SDS011;16133;49.486;12.176;2022-07-29T05:38:36;3.35;;;2.38;;
29044;SDS011;16133;49.486;12.176;2022-07-29T05:41:02;2.72;;;2.10;;
29044;SDS011;16133;49.486;12.176;2022-07-29T05:43:27;2.92;;;2.10;;
29044;SDS011;16133;49.486;12.176;2022-07-29T05:45:53;3.35;;;2.13;;
29044;SDS011;16133;49.486;12.176;2022-07-29T05:48:19;3.00;;;2.47;;
29044;SDS011;16133;49.486;12.176;2022-07-29T05:50:44;5.32;;;2.03;;
29044;SDS011;16133;49.486;12.176;2022-07-29T05:53:09;2.83;;;2.10;;
29044;SDS011;16133;49.486;12.176;2022-07-29T05:55:35;4.70;;;2.30;;
29044;SDS011;16133;49.486;12.176;2022-07-29T05:58:00;3.03;;;2.25;;
29044;SDS011;16133;49.486;12.176;2022-07-29T06:00:26;2.97;;;2.28;;
29044;SDS011;16133;49.486;12.176;2022-07-29T06:02:51;5.25;;;2.40;;
29044;SDS011;16133;49.486;12.176;2022-07-29T06:05:16;6.18;;;2.70;;
29044;SDS011;16133;49.486;12.176;2022-07-29T06:07:42;3.45;;;2.20;;
29044;SDS011;16133;49.486;12.176;2022-07-29T06:10:07;2.55;;;1.90;;
29044;SDS011;16133;49.486;12.176;2022-07-29T06:12:34;5.05;;;2.08;;
29044;SDS011;16133;49.486;12.176;2022-07-29T06:14:59;3.25;;;2.47;;
29044;SDS011;16133;49.486;12.176;2022-07-29T06:17:24;4.40;;;2.25;;
29044;SDS011;16133;49.486;12.176;2022-07-29T06:19:50;2.78;;;2.22;;
29044;SDS011;16133;49.486;12.176;2022-07-29T06:22:15;2.47;;;1.88;;
29044;SDS011;16133;49.486;12.176;2022-07-29T06:24:42;2.70;;;2.00;;
29044;SDS011;16133;49.486;12.176;2022-07-29T06:27:09;3.30;;;2.05;;
29044;SDS011;16133;49.486;12.176;2022-07-29T06:29:35;1.90;;;1.70;;
29044;SDS011;16133;49.486;12.176;2022-07-29T06:32:00;2.67;;;1.98;;
29044;SDS011;16133;49.486;12.176;2022-07-29T06:34:25;2.72;;;2.45;;
29044;SDS011;16133;49.486;12.176;2022-07-29T06:36:51;3.35;;;2.53;;
29044;SDS011;16133;49.486;12.176;2022-07-29T06:39:17;5.35;;;2.13;;
29044;SDS011;16133;49.486;12.176;2022-07-29T06:41:45;3.38;;;2.28;;
29044;SDS011;16133;49.486;12.176;2022-07-29T06:44:15;3.65;;;2.63;;
29044;SDS011;16133;49.486;12.176;2022-07-29T06:46:41;2.80;;;2.13;;
29044;SDS011;16133;49.486;12.176;2022-07-29T06:49:07;4.03;;;2.30;;
29044;SDS011;16133;49.486;12.176;2022-07-29T06:51:33;5.32;;;2.22;;
29044;SDS011;16133;49.486;12.176;2022-07-29T06:53:58;5.18;;;2.40;;
29044;SDS011;16133;49.486;12.176;2022-07-29T06:56:24;3.45;;;2.63;;
29044;SDS011;16133;49.486;12.176;2022-07-29T06:58:50;3.90;;;2.42;;
29044;SDS011;16133;49.486;12.176;2022-07-29T07:01:15;5.70;;;2.47;;
29044;SDS011;16133;49.486;12.176;2022-07-29T07:03:41;4.32;;;2.17;;
29044;SDS011;16133;49.486;12.176;2022-07-29T07:06:06;4.65;;;2.63;;
29044;SDS011;16133;49.486;12.176;2022-07-29T07:08:32;4.40;;;2.72;;
29044;SDS011;16133;49.486;12.176;2022-07-29T07:10:58;4.70;;;2.33;;
29044;SDS011;16133;49.486;12.176;2022-07-29T07:13:23;3.58;;;2.80;;
29044;SDS011;16133;49.486;12.176;2022-07-29T07:15:49;3.30;;;2.05;;
29044;SDS011;16133;49.486;12.176;2022-07-29T07:18:15;6.32;;;2.67;;
29044;SDS011;16133;49.486;12.176;2022-07-29T07:20:41;4.65;;;2.63;;
29044;SDS011;16133;49.486;12.176;2022-07-29T07:23:07;3.83;;;2.38;;
29044;SDS011;16133;49.486;12.176;2022-07-29T07:25:33;2.40;;;2.03;;
29044;SDS011;16133;49.486;12.176;2022-07-29T07:27:58;2.80;;;2.40;;
29044;SDS011;16133;49.486;12.176;2022-07-29T07:30:23;2.95;;;1.85;;
29044;SDS011;16133;49.486;12.176;2022-07-29T07:32:49;2.65;;;2.22;;
29044;SDS011;16133;49.486;12.176;2022-07-29T07:35:14;4.05;;;2.35;;
29044;SDS011;16133;49.486;12.176;2022-07-29T07:37:40;6.30;;;2.63;;
29044;SDS011;16133;49.486;12.176;2022-07-29T07:40:06;4.30;;;2.83;;
29044;SDS011;16133;49.486;12.176;2022-07-29T07:42:33;2.90;;;2.13;;
29044;SDS011;16133;49.486;12.176;2022-07-29T07:44:58;3.90;;;2.60;;
29044;SDS011;16133;49.486;12.176;2022-07-29T07:47:24;3.20;;;2.55;;
29044;SDS011;16133;49.486;12.176;2022-07-29T07:49:50;4.38;;;2.30;;
29044;SDS011;16133;49.486;12.176;2022-07-29T07:52:16;3.30;;;2.42;;
29044;SDS011;16133;49.486;12.176;2022-07-29T07:54:43;5.63;;;3.15;;
29044;SDS011;16133;49.486;12.176;2022-07-29T07:57:09;3.78;;;2.47;;
29044;SDS011;16133;49.486;12.176;2022-07-29T07:59:35;5.75;;;2.85;;
29044;SDS011;16133;49.486;12.176;2022-07-29T08:02:00;3.35;;;2.70;;
29044;SDS011;16133;49.486;12.176;2022-07-29T08:04:26;6.82;;;2.83;;
29044;SDS011;16133;49.486;12.176;2022-07-29T08:06:52;4.40;;;2.20;;
29044;SDS011;16133;49.486;12.176;2022-07-29T08:09:19;4.18;;;2.90;;
29044;SDS011;16133;49.486;12.176;2022-07-29T08:11:45;3.75;;;2.70;;
29044;SDS011;16133;49.486;12.176;2022-07-29T08:14:10;2.67;;;2.40;;
29044;SDS011;16133;49.486;12.176;2022-07-29T08:16:36;3.45;;;2.65;;
29044;SDS011;16133;49.486;12.176;2022-07-29T08:19:01;2.60;;;2.40;;
29044;SDS011;16133;49.486;12.176;2022-07-29T08:21:26;4.60;;;2.63;;
29044;SDS011;16133;49.486;12.176;2022-07-29T08:23:52;3.40;;;2.90;;
29044;SDS011;16133;49.486;12.176;2022-07-29T08:26:20;5.45;;;3.25;;
29044;SDS011;16133;49.486;12.176;2022-07-29T08:28:47;3.17;;;2.55;;
29044;SDS011;16133;49.486;12.176;2022-07-29T08:31:15;3.72;;;2.60;;
29044;SDS011;16133;49.486;12.176;2022-07-29T08:33:41;2.90;;;2.60;;
29044;SDS011;16133;49.486;12.176;2022-07-29T08:36:07;4.63;;;2.67;;
29044;SDS011;16133;49.486;12.176;2022-07-29T08:38:33;4.00;;;3.25;;
29044;SDS011;16133;49.486;12.176;2022-07-29T08:40:59;5.60;;;2.90;;
29044;SDS011;16133;49.486;12.176;2022-07-29T08:43:26;5.43;;;3.38;;
29044;SDS011;16133;49.486;12.176;2022-07-29T08:45:52;5.18;;;3.05;;
29044;SDS011;16133;49.486;12.176;2022-07-29T08:48:18;3.70;;;3.00;;
29044;SDS011;16133;49.486;12.176;2022-07-29T08:50:47;7.18;;;3.03;;
29044;SDS011;16133;49.486;12.176;2022-07-29T08:53:14;7.40;;;3.80;;
29044;SDS011;16133;49.486;12.176;2022-07-29T08:55:42;6.70;;;2.97;;
29044;SDS011;16133;49.486;12.176;2022-07-29T08:58:08;4.95;;;3.35;;
29044;SDS011;16133;49.486;12.176;2022-07-29T09:00:35;4.85;;;3.38;;
29044;SDS011;16133;49.486;12.176;2022-07-29T09:03:06;3.50;;;2.90;;
29044;SDS011;16133;49.486;12.176;2022-07-29T09:05:34;3.33;;;3.03;;
29044;SDS011;16133;49.486;12.176;2022-07-29T09:07:59;6.80;;;3.20;;
29044;SDS011;16133;49.486;12.176;2022-07-29T09:10:26;3.58;;;2.88;;
29044;SDS011;16133;49.486;12.176;2022-07-29T09:12:54;4.47;;;3.00;;
29044;SDS011;16133;49.486;12.176;2022-07-29T09:15:19;5.15;;;2.78;;
29044;SDS011;16133;49.486;12.176;2022-07-29T09:17:46;4.70;;;3.10;;
29044;SDS011;16133;49.486;12.176;2022-07-29T09:20:14;4.25;;;2.72;;
29044;SDS011;16133;49.486;12.176;2022-07-29T09:22:47;5.40;;;3.03;;
29044;SDS011;16133;49.486;12.176;2022-07-29T09:25:14;5.22;;;3.15;;
29044;SDS011;16133;49.486;12.176;2022-07-29T09:28:04;4.28;;;3.60;;
29044;SDS011;16133;49.486;12.176;2022-07-29T09:30:57;3.30;;;3.00;;
29044;SDS011;16133;49.486;12.176;2022-07-29T09:33:23;4.05;;;2.92;;
29044;SDS011;16133;49.486;12.176;2022-07-29T09:36:05;4.15;;;3.10;;
29044;SDS011;16133;49.486;12.176;2022-07-29T09:38:33;6.50;;;2.92;;
29044;SDS011;16133;49.486;12.176;2022-07-29T09:40:59;4.03;;;3.08;;
29044;SDS011;16133;49.486;12.176;2022-07-29T09:43:27;3.83;;;3.08;;
29044;SDS011;16133;49.486;12.176;2022-07-29T09:45:52;3.33;;;3.03;;
29044;SDS011;16133;49.486;12.176;2022-07-29T09:48:19;3.28;;;2.97;;
29044;SDS011;16133;49.486;12.176;2022-07-29T09:50:48;3.17;;;2.85;;
29044;SDS011;16133;49.486;12.176;2022-07-29T09:55:59;2.75;;;2.55;;
29044;SDS011;16133;49.486;12.176;2022-07-29T09:58:25;4.38;;;2.83;;
29044;SDS011;16133;49.486;12.176;2022-07-29T10:00:52;3.03;;;2.80;;
29044;SDS011;16133;49.486;12.176;2022-07-29T10:03:18;4.82;;;2.95;;
29044;SDS011;16133;49.486;12.176;2022-07-29T10:05:44;3.35;;;2.85;;
29044;SDS011;16133;49.486;12.176;2022-07-29T10:08:11;3.60;;;2.55;;
29044;SDS011;16133;49.486;12.176;2022-07-29T10:10:41;3.60;;;2.92;;
29044;SDS011;16133;49.486;12.176;2022-07-29T10:13:13;4.57;;;2.80;;
29044;SDS011;16133;49.486;12.176;2022-07-29T10:15:40;3.83;;;3.53;;
29044;SDS011;16133;49.486;12.176;2022-07-29T10:18:09;5.38;;;2.85;;
29044;SDS011;16133;49.486;12.176;2022-07-29T10:20:35;3.67;;;2.80;;
29044;SDS011;16133;49.486;12.176;2022-07-29T10:23:02;6.43;;;3.00;;
29044;SDS011;16133;49.486;12.176;2022-07-29T10:25:28;4.40;;;2.63;;
29044;SDS011;16133;49.486;12.176;2022-07-29T10:27:54;5.38;;;3.13;;
29044;SDS011;16133;49.486;12.176;2022-07-29T10:30:20;3.78;;;3.03;;
29044;SDS011;16133;49.486;12.176;2022-07-29T10:35:54;3.33;;;2.60;;
29044;SDS011;16133;49.486;12.176;2022-07-29T10:44:38;2.60;;;2.40;;
29044;SDS011;16133;49.486;12.176;2022-07-29T10:47:05;3.38;;;3.08;;
29044;SDS011;16133;49.486;12.176;2022-07-29T10:49:31;3.00;;;2.80;;
29044;SDS011;16133;49.486;12.176;2022-07-29T10:57:10;4.20;;;2.38;;
29044;SDS011;16133;49.486;12.176;2022-07-29T10:59:36;4.53;;;2.72;;
29044;SDS011;16133;49.486;12.176;2022-07-29T11:02:01;2.55;;;2.35;;
29044;SDS011;16133;49.486;12.176;2022-07-29T11:07:08;3.30;;;2.55;;
29044;SDS011;16133;49.486;12.176;2022-07-29T11:09:33;3.00;;;2.70;;
29044;SDS011;16133;49.486;12.176;2022-07-29T11:11:59;4.00;;;3.08;;
29044;SDS011;16133;49.486;12.176;2022-07-29T11:19:44;2.97;;;2.67;;
29044;SDS011;16133;49.486;12.176;2022-07-29T11:22:09;3.63;;;2.70;;
29044;SDS011;16133;49.486;12.176;2022-07-29T11:24:36;2.92;;;2.63;;
29044;SDS011;16133;49.486;12.176;2022-07-29T11:29:56;3.28;;;2.70;;
29044;SDS011;16133;49.486;12.176;2022-07-29T11:32:21;3.38;;;2.90;;
29044;SDS011;16133;49.486;12.176;2022-07-29T11:34:49;3.17;;;2.88;;
29044;SDS011;16133;49.486;12.176;2022-07-29T11:41:26;3.33;;;2.40;;
29044;SDS011;16133;49.486;12.176;2022-07-29T11:43:56;3.00;;;2.65;;
29044;SDS011;16133;49.486;12.176;2022-07-29T11:49:13;4.13;;;2.78;;
29044;SDS011;16133;49.486;12.176;2022-07-29T11:51:49;2.95;;;2.63;;
29044;SDS011;16133;49.486;12.176;2022-07-29T11:54:15;3.25;;;2.58;;
29044;SDS011;16133;49.486;12.176;2022-07-29T11:56:51;4.18;;;2.60;;
29044;SDS011;16133;49.486;12.176;2022-07-29T11:59:17;3.67;;;2.67;;
29044;SDS011;16133;49.486;12.176;2022-07-29T12:01:53;11.43;;;2.50;;
29044;SDS011;16133;49.486;12.176;2022-07-29T12:04:20;4.40;;;3.58;;
29044;SDS011;16133;49.486;12.176;2022-07-29T12:06:49;5.35;;;2.75;;
29044;SDS011;16133;49.486;12.176;2022-07-29T12:09:15;4.22;;;2.38;;
29044;SDS011;16133;49.486;12.176;2022-07-29T12:11:42;2.67;;;2.47;;
29044;SDS011;16133;49.486;12.176;2022-07-29T12:14:08;3.63;;;3.05;;
29044;SDS011;16133;49.486;12.176;2022-07-29T12:16:36;4.05;;;2.55;;
29044;SDS011;16133;49.486;12.176;2022-07-29T12:19:02;3.63;;;2.80;;
29044;SDS011;16133;49.486;12.176;2022-07-29T12:21:50;2.85;;;2.65;;
29044;SDS011;16133;49.486;12.176;2022-07-29T12:24:15;3.30;;;2.40;;
29044;SDS011;16133;49.486;12.176;2022-07-29T12:26:51;3.05;;;2.75;;
29044;SDS011;16133;49.486;12.176;2022-07-29T12:29:17;2.67;;;2.47;;
29044;SDS011;16133;49.486;12.176;2022-07-29T12:31:44;4.60;;;3.08;;
29044;SDS011;16133;49.486;12.176;2022-07-29T12:34:13;2.97;;;2.72;;
29044;SDS011;16133;49.486;12.176;2022-07-29T12:36:41;3.13;;;2.22;;
29044;SDS011;16133;49.486;12.176;2022-07-29T12:39:07;3.53;;;2.70;;
29044;SDS011;16133;49.486;12.176;2022-07-29T12:41:34;3.08;;;2.70;;
29044;SDS011;16133;49.486;12.176;2022-07-29T12:43:59;3.15;;;2.80;;
29044;SDS011;16133;49.486;12.176;2022-07-29T12:46:25;4.10;;;3.00;;
29044;SDS011;16133;49.486;12.176;2022-07-29T12:48:51;3.58;;;2.90;;
29044;SDS011;16133;49.486;12.176;2022-07-29T12:51:28;4.22;;;3.22;;
29044;SDS011;16133;49.486;12.176;2022-07-29T12:54:02;4.63;;;3.13;;
29044;SDS011;16133;49.486;12.176;2022-07-29T12:56:29;3.45;;;2.92;;
29044;SDS011;16133;49.486;12.176;2022-07-29T12:58:54;4.80;;;3.30;;
29044;SDS011;16133;49.486;12.176;2022-07-29T13:01:20;5.38;;;3.17;;
29044;SDS011;16133;49.486;12.176;2022-07-29T13:11:33;3.88;;;3.15;;
29044;SDS011;16133;49.486;12.176;2022-07-29T13:14:06;3.67;;;3.38;;
29044;SDS011;16133;49.486;12.176;2022-07-29T13:16:33;6.18;;;4.18;;
29044;SDS011;16133;49.486;12.176;2022-07-29T13:19:10;3.50;;;3.20;;
29044;SDS011;16133;49.486;12.176;2022-07-29T13:21:37;4.85;;;4.32;;
29044;SDS011;16133;49.486;12.176;2022-07-29T13:24:07;10.80;;;3.78;;
29044;SDS011;16133;49.486;12.176;2022-07-29T13:26:33;4.20;;;3.80;;
29044;SDS011;16133;49.486;12.176;2022-07-29T13:28:58;6.18;;;3.97;;
29044;SDS011;16133;49.486;12.176;2022-07-29T13:31:24;5.07;;;4.03;;
29044;SDS011;16133;49.486;12.176;2022-07-29T13:33:50;4.07;;;3.75;;
29044;SDS011;16133;49.486;12.176;2022-07-29T13:36:15;3.53;;;3.22;;
29044;SDS011;16133;49.486;12.176;2022-07-29T13:38:40;4.78;;;3.80;;
29044;SDS011;16133;49.486;12.176;2022-07-29T13:41:06;3.70;;;3.33;;
29044;SDS011;16133;49.486;12.176;2022-07-29T13:43:32;5.00;;;4.38;;
29044;SDS011;16133;49.486;12.176;2022-07-29T13:45:57;4.13;;;3.53;;
29044;SDS011;16133;49.486;12.176;2022-07-29T13:48:23;4.53;;;3.90;;
29044;SDS011;16133;49.486;12.176;2022-07-29T13:50:48;4.68;;;3.97;;
29044;SDS011;16133;49.486;12.176;2022-07-29T13:53:13;4.00;;;3.55;;
29044;SDS011;16133;49.486;12.176;2022-07-29T13:55:39;5.72;;;3.80;;
29044;SDS011;16133;49.486;12.176;2022-07-29T13:58:04;3.95;;;3.55;;
29044;SDS011;16133;49.486;12.176;2022-07-29T14:00:29;4.18;;;3.65;;
29044;SDS011;16133;49.486;12.176;2022-07-29T14:02:55;5.53;;;3.97;;
29044;SDS011;16133;49.486;12.176;2022-07-29T14:05:20;3.97;;;3.42;;
29044;SDS011;16133;49.486;12.176;2022-07-29T14:07:45;4.00;;;3.47;;
29044;SDS011;16133;49.486;12.176;2022-07-29T14:10:11;4.32;;;3.50;;
29044;SDS011;16133;49.486;12.176;2022-07-29T14:12:36;3.75;;;3.40;;
29044;SDS011;16133;49.486;12.176;2022-07-29T14:15:02;4.28;;;3.90;;
29044;SDS011;16133;49.486;12.176;2022-07-29T14:17:28;5.32;;;3.92;;
29044;SDS011;16133;49.486;12.176;2022-07-29T14:19:53;3.80;;;3.50;;
29044;SDS011;16133;49.486;12.176;2022-07-29T14:22:19;5.18;;;3.40;;
29044;SDS011;16133;49.486;12.176;2022-07-29T14:24:44;4.28;;;3.38;;
29044;SDS011;16133;49.486;12.176;2022-07-29T14:27:10;4.93;;;3.80;;
29044;SDS011;16133;49.486;12.176;2022-07-29T14:29:36;5.25;;;3.90;;
29044;SDS011;16133;49.486;12.176;2022-07-29T14:32:02;4.15;;;3.75;;
29044;SDS011;16133;49.486;12.176;2022-07-29T14:34:27;5.53;;;4.05;;
29044;SDS011;16133;49.486;12.176;2022-07-29T14:36:53;3.85;;;3.40;;
29044;SDS011;16133;49.486;12.176;2022-07-29T14:39:20;5.82;;;4.60;;
29044;SDS011;16133;49.486;12.176;2022-07-29T14:41:49;4.40;;;4.00;;
29044;SDS011;16133;49.486;12.176;2022-07-29T14:44:16;4.10;;;3.70;;
29044;SDS011;16133;49.486;12.176;2022-07-29T14:46:42;4.22;;;3.83;;
29044;SDS011;16133;49.486;12.176;2022-07-29T14:49:08;8.70;;;3.97;;
29044;SDS011;16133;49.486;12.176;2022-07-29T14:51:33;6.47;;;3.17;;
29044;SDS011;16133;49.486;12.176;2022-07-29T14:53:58;8.98;;;2.92;;
29044;SDS011;16133;49.486;12.176;2022-07-29T14:56:24;3.88;;;3.30;;
29044;SDS011;16133;49.486;12.176;2022-07-29T14:58:49;6.28;;;4.47;;
29044;SDS011;16133;49.486;12.176;2022-07-29T15:01:14;4.03;;;3.58;;
29044;SDS011;16133;49.486;12.176;2022-07-29T15:03:40;6.00;;;3.67;;
29044;SDS011;16133;49.486;12.176;2022-07-29T15:06:05;8.98;;;3.88;;
29044;SDS011;16133;49.486;12.176;2022-07-29T15:08:30;6.43;;;4.10;;
29044;SDS011;16133;49.486;12.176;2022-07-29T15:10:56;6.38;;;4.65;;
29044;SDS011;16133;49.486;12.176;2022-07-29T15:13:24;7.35;;;3.47;;
29044;SDS011;16133;49.486;12.176;2022-07-29T15:15:50;4.80;;;3.58;;
29044;SDS011;16133;49.486;12.176;2022-07-29T15:18:15;4.07;;;2.78;;
29044;SDS011;16133;49.486;12.176;2022-07-29T15:20:40;3.95;;;2.42;;
29044;SDS011;16133;49.486;12.176;2022-07-29T15:23:06;3.05;;;2.70;;
29044;SDS011;16133;49.486;12.176;2022-07-29T15:25:34;4.72;;;2.25;;
29044;SDS011;16133;49.486;12.176;2022-07-29T15:28:01;3.65;;;2.92;;